createdAt,value
2023-11-28T00:01:48.743Z,22.02
2023-11-28T00:04:15.531Z,19.92
2023-11-28T00:06:42.110Z,19.08
2023-11-28T00:09:08.592Z,17.20
2023-11-28T00:11:35.050Z,23.77
2023-11-28T00:14:01.674Z,20.45
2023-11-28T00:16:28.295Z,18.55
2023-11-28T00:18:54.902Z,18.40
2023-11-28T00:21:21.448Z,18.75
2023-11-28T00:23:47.898Z,20.00
2023-11-28T00:26:15.519Z,19.15
2023-11-28T00:28:42.084Z,19.50
2023-11-28T00:31:08.615Z,20.48
2023-11-28T00:33:35.392Z,25.20
2023-11-28T00:36:02.006Z,23.02
2023-11-28T00:38:28.469Z,22.88
2023-11-28T00:40:54.965Z,25.23
2023-11-28T00:43:21.971Z,36.70
2023-11-28T00:45:48.609Z,33.67
2023-11-28T00:48:15.160Z,28.13
2023-11-28T00:50:41.619Z,22.77
2023-11-28T00:53:08.123Z,22.80
2023-11-28T00:55:34.819Z,21.92
2023-11-28T00:58:01.329Z,21.58
2023-11-28T01:00:27.757Z,21.88
2023-11-28T01:02:54.406Z,19.60
2023-11-28T01:05:22.085Z,22.20
2023-11-28T01:07:48.784Z,22.33
2023-11-28T01:10:15.306Z,24.33
2023-11-28T01:12:42.093Z,21.40
2023-11-28T01:15:09.380Z,20.35
2023-11-28T01:17:36.342Z,22.02
2023-11-28T01:20:03.492Z,20.40
2023-11-28T01:22:30.257Z,22.02
2023-11-28T01:24:56.786Z,20.15
2023-11-28T01:27:23.288Z,20.75
2023-11-28T01:29:49.757Z,24.08
2023-11-28T01:32:16.321Z,25.23
2023-11-28T01:34:42.981Z,22.55
2023-11-28T01:37:09.475Z,21.73
2023-11-28T01:39:35.945Z,24.55
2023-11-28T01:42:02.698Z,24.17
2023-11-28T01:44:29.275Z,23.35
2023-11-28T01:46:56.206Z,26.17
2023-11-28T01:49:22.816Z,22.88
2023-11-28T01:51:49.453Z,24.95
2023-11-28T01:54:16.683Z,27.90
2023-11-28T01:56:44.008Z,21.60
2023-11-28T01:59:10.981Z,23.15
2023-11-28T02:01:37.720Z,25.42
2023-11-28T02:04:04.541Z,23.48
2023-11-28T02:06:31.231Z,22.90
2023-11-28T02:08:57.858Z,22.52
2023-11-28T02:11:24.455Z,23.30
2023-11-28T02:13:51.020Z,22.75
2023-11-28T02:16:18.254Z,22.98
2023-11-28T02:18:44.849Z,26.20
2023-11-28T02:21:13.058Z,25.98
2023-11-28T02:23:39.933Z,30.33
2023-11-28T02:26:27.149Z,22.63
2023-11-28T02:28:54.957Z,26.20
2023-11-28T02:31:22.122Z,23.10
2023-11-28T02:33:49.488Z,23.75
2023-11-28T02:36:16.027Z,23.92
2023-11-28T02:38:42.814Z,27.23
2023-11-28T02:41:09.368Z,24.80
2023-11-28T02:43:36.034Z,21.45
2023-11-28T02:46:02.560Z,25.75
2023-11-28T02:48:29.716Z,21.75
2023-11-28T02:50:56.318Z,27.33
2023-11-28T02:53:22.799Z,24.85
2023-11-28T02:55:49.335Z,24.73
2023-11-28T02:58:15.796Z,24.67
2023-11-28T03:00:42.276Z,25.48
2023-11-28T03:03:08.876Z,23.98
2023-11-28T03:05:35.446Z,24.42
2023-11-28T03:08:01.989Z,23.25
2023-11-28T03:10:28.550Z,26.98
2023-11-28T03:12:55.036Z,30.05
2023-11-28T03:15:21.500Z,29.02
2023-11-28T03:17:47.993Z,35.13
2023-11-28T03:20:15.959Z,30.30
2023-11-28T03:22:42.553Z,35.30
2023-11-28T03:25:12.750Z,34.88
2023-11-28T03:27:39.270Z,34.20
2023-11-28T03:30:06.306Z,36.72
2023-11-28T03:32:33.017Z,34.10
2023-11-28T03:34:59.661Z,29.17
2023-11-28T03:37:27.081Z,30.73
2023-11-28T03:39:53.576Z,31.33
2023-11-28T03:42:20.320Z,29.90
2023-11-28T03:44:46.911Z,27.42
2023-11-28T03:47:13.529Z,27.73
2023-11-28T03:49:40.087Z,31.27
2023-11-28T03:52:06.802Z,28.85
2023-11-28T03:54:33.264Z,27.85
2023-11-28T03:56:59.681Z,25.95
2023-11-28T03:59:26.276Z,24.60
2023-11-28T04:01:52.919Z,28.02
2023-11-28T04:04:19.520Z,27.75
2023-11-28T04:06:46.050Z,27.15
2023-11-28T04:09:13.348Z,28.38
2023-11-28T04:11:39.800Z,28.42
2023-11-28T04:14:06.320Z,26.10
2023-11-28T04:16:32.871Z,30.67
2023-11-28T04:18:59.941Z,26.10
2023-11-28T04:21:26.399Z,24.08
2023-11-28T04:23:52.840Z,29.05
2023-11-28T04:26:19.336Z,22.67
2023-11-28T04:28:45.884Z,27.60
2023-11-28T04:31:22.085Z,26.65
2023-11-28T04:33:49.028Z,30.60
2023-11-28T04:36:18.552Z,28.88
2023-11-28T04:38:46.010Z,29.30
2023-11-28T04:41:13.302Z,25.17
2023-11-28T04:43:39.898Z,30.05
2023-11-28T04:46:07.067Z,28.30
2023-11-28T04:48:33.633Z,32.35
2023-11-28T04:51:00.276Z,33.30
2023-11-28T04:53:27.594Z,34.55
2023-11-28T04:55:54.068Z,32.25
2023-11-28T04:58:20.558Z,34.22
2023-11-28T05:00:47.162Z,29.67
2023-11-28T05:03:14.047Z,32.00
2023-11-28T05:05:40.762Z,33.38
2023-11-28T05:08:07.237Z,33.25
2023-11-28T05:10:33.884Z,36.15
2023-11-28T05:13:00.392Z,31.73
2023-11-28T05:15:26.835Z,30.30
2023-11-28T05:17:53.532Z,30.85
2023-11-28T05:20:20.226Z,33.10
2023-11-28T05:22:46.703Z,35.17
2023-11-28T05:25:13.230Z,33.42
2023-11-28T05:27:39.737Z,36.85
2023-11-28T05:30:07.461Z,32.42
2023-11-28T05:32:33.955Z,37.78
2023-11-28T05:35:00.608Z,30.27
2023-11-28T05:37:27.211Z,32.28
2023-11-28T05:39:53.702Z,31.98
2023-11-28T05:42:20.154Z,31.88
2023-11-28T05:44:46.633Z,31.90
2023-11-28T05:47:13.250Z,35.10
2023-11-28T05:49:39.809Z,37.25
2023-11-28T05:52:06.564Z,36.97
2023-11-28T05:54:33.132Z,30.40
2023-11-28T05:56:59.700Z,36.35
2023-11-28T05:59:26.164Z,36.53
2023-11-28T06:02:05.054Z,38.50
2023-11-28T06:04:32.412Z,39.15
2023-11-28T06:06:59.332Z,40.15
2023-11-28T06:09:26.499Z,33.72
2023-11-28T06:11:53.005Z,37.92
2023-11-28T06:14:20.954Z,36.50
2023-11-28T06:16:47.676Z,39.60
2023-11-28T06:19:15.864Z,35.42
2023-11-28T06:21:42.679Z,40.70
2023-11-28T06:24:09.861Z,42.20
2023-11-28T06:26:36.436Z,42.92
2023-11-28T06:29:03.507Z,44.10
2023-11-28T06:31:30.235Z,43.83
2023-11-28T06:33:56.777Z,43.78
2023-11-28T06:36:23.287Z,43.92
2023-11-28T06:38:49.792Z,47.40
2023-11-28T06:41:16.325Z,42.47
2023-11-28T06:43:42.930Z,50.47
2023-11-28T06:46:10.816Z,54.85
2023-11-28T06:48:39.133Z,56.67
2023-11-28T06:51:08.259Z,56.67
2023-11-28T06:53:34.769Z,53.22
2023-11-28T06:56:03.828Z,56.13
2023-11-28T06:58:30.440Z,49.35
2023-11-28T07:00:57.009Z,57.63
2023-11-28T07:03:24.137Z,54.15
2023-11-28T07:05:50.636Z,56.65
2023-11-28T07:08:17.201Z,55.00
2023-11-28T07:10:43.715Z,57.00
2023-11-28T07:13:11.284Z,48.00
2023-11-28T07:15:38.007Z,48.45
2023-11-28T07:18:05.042Z,47.10
2023-11-28T07:20:31.685Z,51.72
2023-11-28T07:22:58.473Z,47.33
2023-11-28T07:25:25.034Z,56.47
2023-11-28T07:27:51.494Z,46.90
2023-11-28T07:30:18.041Z,40.75
2023-11-28T07:32:44.696Z,40.83
2023-11-28T07:35:11.249Z,37.70
2023-11-28T07:37:37.890Z,49.58
2023-11-28T07:40:05.374Z,41.08
2023-11-28T07:42:31.896Z,40.67
2023-11-28T07:44:58.639Z,33.15
2023-11-28T07:47:25.279Z,37.95
2023-11-28T07:49:52.821Z,39.35
2023-11-28T07:52:19.439Z,37.65
2023-11-28T07:54:45.882Z,33.75
2023-11-28T07:57:12.407Z,32.78
2023-11-28T07:59:38.859Z,38.45
2023-11-28T08:02:05.480Z,34.00
2023-11-28T08:04:32.260Z,30.42
2023-11-28T08:06:58.798Z,36.92
2023-11-28T08:09:25.353Z,35.80
2023-11-28T08:11:51.881Z,37.22
2023-11-28T08:14:21.300Z,36.33
2023-11-28T08:16:48.839Z,40.00
2023-11-28T08:19:15.592Z,35.20
2023-11-28T08:21:42.077Z,34.83
2023-11-28T08:24:08.583Z,36.47
2023-11-28T08:26:35.099Z,39.75
2023-11-28T08:29:01.635Z,41.30
2023-11-28T08:31:28.223Z,41.08
2023-11-28T08:33:54.747Z,43.58
2023-11-28T08:36:21.216Z,43.45
2023-11-28T08:38:47.704Z,43.08
2023-11-28T08:41:14.262Z,35.63
2023-11-28T08:43:40.962Z,34.63
2023-11-28T08:46:07.970Z,38.78
2023-11-28T08:48:34.615Z,26.88
2023-11-28T08:51:01.848Z,36.33
2023-11-28T08:53:28.707Z,39.45
2023-11-28T08:55:55.273Z,41.97
2023-11-28T08:58:21.749Z,35.60
2023-11-28T09:00:48.221Z,34.03
2023-11-28T09:03:14.972Z,31.65
2023-11-28T09:05:41.710Z,30.27
2023-11-28T09:08:08.781Z,34.67
2023-11-28T09:10:35.630Z,39.00
2023-11-28T09:13:02.686Z,34.63
2023-11-28T09:15:29.277Z,41.10
2023-11-28T09:17:55.787Z,33.00
2023-11-28T09:20:22.391Z,35.55
2023-11-28T09:22:49.060Z,26.63
2023-11-28T09:25:16.545Z,30.77
2023-11-28T09:27:43.110Z,33.05
2023-11-28T09:30:10.034Z,34.20
2023-11-28T09:32:36.760Z,36.05
2023-11-28T09:35:03.856Z,28.58
2023-11-28T09:37:30.419Z,36.90
2023-11-28T09:39:57.138Z,25.27
2023-11-28T09:42:31.405Z,30.35
2023-11-28T09:45:03.873Z,25.42
2023-11-28T09:47:35.072Z,30.67
2023-11-28T09:50:04.027Z,28.70
2023-11-28T09:52:33.865Z,26.92
2023-11-28T09:55:01.455Z,20.95
2023-11-28T09:57:34.076Z,26.88
2023-11-28T10:00:00.905Z,22.02
2023-11-28T10:02:31.630Z,25.80
2023-11-28T10:04:58.462Z,19.40
2023-11-28T10:07:33.294Z,20.98
2023-11-28T10:10:08.281Z,22.17
2023-11-28T10:12:34.882Z,24.10
2023-11-28T10:15:03.757Z,26.92
2023-11-28T10:17:31.427Z,19.23
2023-11-28T10:20:04.410Z,20.70
2023-11-28T10:22:30.947Z,20.92
2023-11-28T10:24:58.109Z,23.73
2023-11-28T10:27:24.644Z,19.48
2023-11-28T10:29:51.159Z,17.98
2023-11-28T10:32:17.666Z,23.65
2023-11-28T10:34:57.077Z,18.15
2023-11-28T10:37:26.488Z,18.58
2023-11-28T10:39:54.980Z,20.80
2023-11-28T10:42:21.876Z,22.85
2023-11-28T10:44:48.497Z,22.63
2023-11-28T10:47:15.975Z,24.83
2023-11-28T10:49:42.744Z,26.98
2023-11-28T10:52:11.112Z,23.65
2023-11-28T10:54:40.497Z,20.48
2023-11-28T10:57:18.454Z,23.83
2023-11-28T10:59:48.073Z,24.17
2023-11-28T11:02:18.176Z,23.63
2023-11-28T11:04:47.136Z,24.38
2023-11-28T11:07:13.799Z,20.98
2023-11-28T11:09:41.050Z,18.02
2023-11-28T11:12:09.149Z,17.60
2023-11-28T11:14:43.562Z,17.50
2023-11-28T11:17:19.117Z,21.58
2023-11-28T11:19:48.728Z,16.30
2023-11-28T11:22:18.348Z,21.05
2023-11-28T11:24:44.836Z,15.43
2023-11-28T11:27:11.385Z,16.30
2023-11-28T11:29:40.338Z,15.13
2023-11-28T11:32:16.915Z,19.55
2023-11-28T11:34:46.622Z,15.63
2023-11-28T11:37:21.084Z,17.10
2023-11-28T11:39:49.504Z,16.08
2023-11-28T11:42:19.656Z,24.35
2023-11-28T11:44:47.589Z,18.65
2023-11-28T11:47:20.589Z,20.80
2023-11-28T11:49:48.600Z,18.90
2023-11-28T11:52:16.940Z,19.17
2023-11-28T11:54:45.989Z,17.92
2023-11-28T11:57:13.864Z,15.73
2023-11-28T11:59:43.362Z,17.02
2023-11-28T12:02:10.415Z,20.23
2023-11-28T12:04:45.626Z,18.88
2023-11-28T12:07:14.674Z,14.80
2023-11-28T12:09:44.950Z,16.77
2023-11-28T12:12:14.973Z,25.23
2023-11-28T12:14:42.265Z,19.77
2023-11-28T12:17:09.494Z,15.88
2023-11-28T12:19:36.699Z,16.30
2023-11-28T12:22:06.544Z,16.90
2023-11-28T12:24:33.690Z,14.48
2023-11-28T12:27:01.319Z,16.98
2023-11-28T12:29:28.105Z,14.18
2023-11-28T12:31:55.206Z,17.75
2023-11-28T12:34:31.947Z,17.77
2023-11-28T12:36:59.329Z,17.38
2023-11-28T12:39:27.872Z,13.85
2023-11-28T12:41:58.184Z,16.73
2023-11-28T12:44:26.672Z,12.32
2023-11-28T12:46:53.989Z,11.77
2023-11-28T12:49:22.012Z,14.95
2023-11-28T12:51:49.292Z,14.57
2023-11-28T12:54:18.567Z,16.25
2023-11-28T12:56:51.476Z,16.23
2023-11-28T12:59:18.009Z,14.75
2023-11-28T13:01:44.905Z,13.25
2023-11-28T13:04:11.699Z,11.80
2023-11-28T13:06:53.243Z,11.82
2023-11-28T13:09:26.180Z,12.93
2023-11-28T13:11:52.688Z,13.23
2023-11-28T13:14:19.346Z,9.60
2023-11-28T13:16:56.157Z,12.52
2023-11-28T13:19:31.305Z,10.57
2023-11-28T13:21:58.126Z,11.32
2023-11-28T13:24:25.191Z,9.70
2023-11-28T13:26:51.631Z,10.32
2023-11-28T13:29:18.184Z,8.32
2023-11-28T13:31:45.914Z,12.05
2023-11-28T13:34:13.355Z,12.77
2023-11-28T13:36:40.907Z,11.43
2023-11-28T13:39:07.412Z,13.48
2023-11-28T13:41:33.962Z,10.18
2023-11-28T13:44:00.808Z,15.38
2023-11-28T13:46:30.127Z,13.10
2023-11-28T13:48:57.763Z,10.88
2023-11-28T13:51:24.638Z,14.45
2023-11-28T13:53:51.655Z,12.05
2023-11-28T13:56:18.405Z,14.50
2023-11-28T13:58:45.226Z,10.27
2023-11-28T14:01:12.893Z,10.70
2023-11-28T14:03:42.634Z,12.57
2023-11-28T14:06:09.594Z,12.57
2023-11-28T14:08:36.173Z,11.23
2023-11-28T14:11:02.719Z,10.23
2023-11-28T14:13:29.435Z,9.75
2023-11-28T14:15:56.044Z,11.57
2023-11-28T14:18:22.747Z,9.00
2023-11-28T14:20:49.440Z,12.82
2023-11-28T14:23:16.184Z,11.50
2023-11-28T14:25:42.971Z,9.98
2023-11-28T14:28:09.477Z,11.73
2023-11-28T14:30:35.919Z,13.43
2023-11-28T14:33:07.813Z,17.85
2023-11-28T14:35:35.498Z,15.15
2023-11-28T14:38:02.488Z,12.13
2023-11-28T14:40:29.013Z,11.82
2023-11-28T14:42:55.554Z,11.88
2023-11-28T14:45:22.121Z,21.50
2023-11-28T14:47:50.825Z,11.00
2023-11-28T14:50:17.807Z,13.43
2023-11-28T14:52:44.506Z,11.48
2023-11-28T14:55:11.247Z,14.48
2023-11-28T14:57:38.117Z,13.30
2023-11-28T15:00:07.283Z,9.90
2023-11-28T15:02:34.285Z,11.77
2023-11-28T15:05:00.966Z,12.15
2023-11-28T15:07:27.672Z,12.82
2023-11-28T15:09:54.331Z,10.82
2023-11-28T15:12:45.201Z,11.05
2023-11-28T15:15:11.853Z,10.03
2023-11-28T15:17:38.462Z,12.68
2023-11-28T15:20:07.681Z,10.23
2023-11-28T15:22:34.283Z,10.93
2023-11-28T15:25:00.880Z,13.45
2023-11-28T15:27:27.750Z,13.65
2023-11-28T15:29:59.325Z,12.85
2023-11-28T15:32:27.194Z,19.55
2023-11-28T15:34:53.807Z,9.88
2023-11-28T15:37:20.397Z,11.57
2023-11-28T15:39:46.907Z,12.07
2023-11-28T15:42:13.421Z,13.93
2023-11-28T15:44:40.032Z,14.60
2023-11-28T15:47:08.151Z,13.48
2023-11-28T15:49:40.637Z,13.07
2023-11-28T15:52:15.212Z,16.30
2023-11-28T15:54:42.280Z,13.23
2023-11-28T15:57:12.009Z,13.70
2023-11-28T15:59:39.365Z,13.80
2023-11-28T16:02:08.902Z,10.43
2023-11-28T16:04:35.869Z,12.40
2023-11-28T16:07:02.562Z,14.70
2023-11-28T16:09:29.047Z,15.13
2023-11-28T16:11:55.706Z,13.07
2023-11-28T16:14:22.222Z,13.10
2023-11-28T16:16:48.781Z,18.13
2023-11-28T16:19:15.656Z,13.85
2023-11-28T16:21:42.557Z,19.15
2023-11-28T16:24:10.233Z,13.82
2023-11-28T16:26:40.916Z,13.25
2023-11-28T16:29:07.529Z,17.55
2023-11-28T16:31:34.025Z,14.48
2023-11-28T16:34:00.554Z,44.90
2023-11-28T16:36:27.162Z,12.48
2023-11-28T16:38:53.655Z,14.25
2023-11-28T16:41:20.228Z,15.63
2023-11-28T16:43:47.029Z,12.52
2023-11-28T16:46:13.664Z,11.95
2023-11-28T16:48:40.141Z,13.18
2023-11-28T16:51:11.413Z,12.40
2023-11-28T16:53:38.449Z,12.77
2023-11-28T16:56:06.909Z,15.27
2023-11-28T16:58:36.637Z,12.73
2023-11-28T17:01:04.359Z,19.15
2023-11-28T17:03:30.996Z,14.32
2023-11-28T17:05:57.586Z,17.75
2023-11-28T17:08:24.415Z,13.15
2023-11-28T17:10:51.056Z,14.45
2023-11-28T17:13:17.644Z,13.43
2023-11-28T17:15:44.253Z,17.63
2023-11-28T17:18:10.846Z,16.98
2023-11-28T17:20:37.488Z,16.98
2023-11-28T17:23:04.111Z,17.15
2023-11-28T17:25:30.703Z,17.17
2023-11-28T17:27:57.295Z,16.30
2023-11-28T17:30:23.948Z,16.38
2023-11-28T17:32:50.406Z,17.38
2023-11-28T17:35:18.622Z,16.02
2023-11-28T17:37:45.225Z,18.55
2023-11-28T17:40:12.387Z,19.73
2023-11-28T17:42:38.868Z,21.65
2023-11-28T17:45:05.954Z,21.23
2023-11-28T17:47:34.880Z,19.38
2023-11-28T17:50:01.651Z,16.00
2023-11-28T17:52:28.261Z,21.08
2023-11-28T17:54:54.973Z,21.45
2023-11-28T17:57:21.422Z,22.02
2023-11-28T17:59:48.806Z,17.60
2023-11-28T18:02:16.561Z,20.45
2023-11-28T18:04:43.862Z,23.38
2023-11-28T18:07:11.054Z,16.83
2023-11-28T18:09:37.613Z,20.35
2023-11-28T18:12:04.454Z,19.48
2023-11-28T18:14:33.087Z,18.52
2023-11-28T18:16:59.786Z,19.92
2023-11-28T18:19:27.698Z,20.45
2023-11-28T18:21:54.738Z,22.90
2023-11-28T18:24:21.228Z,18.88
2023-11-28T18:26:48.013Z,21.48
2023-11-28T18:29:14.797Z,23.33
2023-11-28T18:31:41.994Z,22.52
2023-11-28T18:34:08.528Z,21.65
2023-11-28T18:36:35.018Z,20.25
2023-11-28T18:39:04.608Z,15.63
2023-11-28T18:41:34.462Z,19.60
2023-11-28T18:44:01.150Z,22.58
2023-11-28T18:46:28.401Z,16.77
2023-11-28T18:48:55.152Z,17.48
2023-11-28T18:51:21.726Z,15.45
2023-11-28T18:53:48.280Z,14.98
2023-11-28T18:56:18.155Z,20.42
2023-11-28T18:58:48.056Z,15.77
2023-11-28T19:01:18.630Z,15.65
2023-11-28T19:03:46.919Z,14.00
2023-11-28T19:06:14.598Z,13.20
2023-11-28T19:08:42.239Z,16.63
2023-11-28T19:11:11.646Z,16.23
2023-11-28T19:13:39.082Z,14.63
2023-11-28T19:16:06.943Z,12.50
2023-11-28T19:18:33.880Z,15.02
2023-11-28T19:21:01.094Z,14.07
2023-11-28T19:23:29.075Z,13.90
2023-11-28T19:25:55.606Z,11.30
2023-11-28T19:28:23.792Z,11.63
2023-11-28T19:30:50.260Z,13.88
2023-11-28T19:33:17.076Z,12.88
2023-11-28T19:35:43.780Z,12.48
2023-11-28T19:38:10.397Z,9.80
2023-11-28T19:40:36.886Z,14.68
2023-11-28T19:43:04.252Z,17.17
2023-11-28T19:45:30.911Z,12.65
2023-11-28T19:47:57.966Z,9.57
2023-11-28T19:50:28.565Z,8.43
2023-11-28T19:52:55.126Z,6.03
2023-11-28T19:55:21.593Z,7.78
2023-11-28T19:57:48.307Z,6.50
2023-11-28T20:00:15.127Z,6.07
2023-11-28T20:02:41.755Z,5.88
2023-11-28T20:05:08.621Z,6.78
2023-11-28T20:07:39.511Z,5.78
2023-11-28T20:10:10.724Z,10.40
2023-11-28T20:12:37.841Z,5.20
2023-11-28T20:15:04.855Z,2.95
2023-11-28T20:17:31.755Z,4.70
2023-11-28T20:19:58.318Z,3.53
2023-11-28T20:22:24.845Z,4.72
2023-11-28T20:24:51.438Z,4.97
2023-11-28T20:27:18.756Z,3.58
2023-11-28T20:29:45.290Z,6.18
2023-11-28T20:32:12.258Z,3.25
2023-11-28T20:34:39.136Z,3.95
2023-11-28T20:37:18.346Z,4.07
2023-11-28T20:39:46.146Z,3.28
2023-11-28T20:42:12.869Z,4.60
2023-11-28T20:44:39.413Z,3.70
2023-11-28T20:47:06.111Z,2.58
2023-11-28T20:49:32.668Z,2.80
2023-11-28T20:51:59.681Z,3.95
2023-11-28T20:54:26.876Z,2.00
2023-11-28T20:56:53.493Z,3.10
2023-11-28T20:59:19.992Z,3.42
2023-11-28T21:01:46.812Z,2.83
2023-11-28T21:04:13.988Z,1.40
2023-11-28T21:06:40.980Z,1.75
2023-11-28T21:09:08.091Z,1.85
2023-11-28T21:11:34.706Z,1.48
2023-11-28T21:14:01.298Z,1.42
2023-11-28T21:16:28.069Z,2.38
2023-11-28T21:18:54.818Z,1.45
2023-11-28T21:21:29.353Z,2.42
2023-11-28T21:23:56.732Z,1.48
2023-11-28T21:26:23.755Z,1.60
2023-11-28T21:28:51.517Z,1.05
2023-11-28T21:31:18.093Z,1.70
2023-11-28T21:33:47.704Z,1.27
2023-11-28T21:36:15.946Z,1.50
2023-11-28T21:38:45.332Z,1.15
2023-11-28T21:41:19.675Z,0.70
2023-11-28T21:43:46.288Z,0.80
2023-11-28T21:46:13.161Z,0.73
2023-11-28T21:48:42.833Z,0.95
2023-11-28T21:51:09.508Z,2.28
2023-11-28T21:53:36.818Z,1.20
2023-11-28T21:56:04.420Z,1.40
2023-11-28T21:58:31.241Z,0.90
2023-11-28T22:00:57.715Z,0.95
2023-11-28T22:03:24.695Z,0.43
2023-11-28T22:05:51.589Z,1.23
2023-11-28T22:08:18.778Z,1.08
2023-11-28T22:10:45.520Z,0.75
2023-11-28T22:13:12.544Z,0.88
2023-11-28T22:15:38.983Z,0.90
2023-11-28T22:18:06.090Z,9.35
2023-11-28T22:20:33.541Z,12.38
2023-11-28T22:23:00.215Z,11.88
2023-11-28T22:25:26.794Z,9.30
2023-11-28T22:27:53.376Z,10.73
2023-11-28T22:30:20.012Z,8.75
2023-11-28T22:32:46.464Z,11.70
2023-11-28T22:35:12.965Z,2.92
2023-11-28T22:37:40.727Z,1.63
2023-11-28T22:40:09.277Z,2.50
2023-11-28T22:42:35.819Z,1.45
2023-11-28T22:45:02.256Z,2.05
2023-11-28T22:47:28.837Z,2.63
2023-11-28T22:49:55.393Z,2.55
2023-11-28T22:52:22.016Z,2.50
2023-11-28T22:54:48.573Z,1.63
2023-11-28T22:57:15.027Z,3.95
2023-11-28T22:59:42.610Z,1.85
2023-11-28T23:02:11.706Z,2.47
2023-11-28T23:04:38.931Z,1.40
2023-11-28T23:07:06.014Z,1.73
2023-11-28T23:09:34.288Z,3.58
2023-11-28T23:12:02.271Z,2.95
2023-11-28T23:14:29.759Z,3.05
2023-11-28T23:16:56.468Z,2.17
2023-11-28T23:19:22.965Z,6.10
2023-11-28T23:21:49.448Z,2.83
2023-11-28T23:24:16.061Z,2.30
2023-11-28T23:26:43.902Z,2.55
2023-11-28T23:29:10.979Z,1.55
2023-11-28T23:31:37.544Z,0.80
2023-11-28T23:34:05.956Z,1.77
2023-11-28T23:36:33.080Z,1.85
2023-11-28T23:38:59.964Z,2.65
2023-11-28T23:41:27.035Z,1.75
2023-11-28T23:43:53.493Z,3.28
2023-11-28T23:46:19.949Z,2.13
2023-11-28T23:48:49.180Z,3.78
2023-11-28T23:51:16.613Z,2.13
2023-11-28T23:53:43.166Z,2.70
2023-11-28T23:56:10.100Z,1.33
2023-11-28T23:58:36.641Z,2.33
